Time;durP1;ratioP1;P1;durP2;ratioP2;P2;SDS_P1;SDS_P2;PMS_P1;PMS_P2;Temp;Humidity;BMP_temperature;BMP_pressure;BME280_temperature;BME280_humidity;BME280_pressure;Samples;Min_cycle;Max_cycle;Signal;HPM_P1;HPM_P2
2021/10/29 00:00:14;;;;;;;15.35;11.18;;;14.30;73.90;;;;;;5095746;28;20070;-56
2021/10/29 00:02:39;;;;;;;16.67;12.27;;;14.30;74.60;;;;;;5112433;28;20419;-57
2021/10/29 00:05:06;;;;;;;14.57;11.02;;;14.40;74.10;;;;;;5101119;28;20053;-55
2021/10/29 00:07:32;;;;;;;17.48;11.90;;;14.40;73.90;;;;;;5101096;28;20016;-56
2021/10/29 00:09:58;;;;;;;14.95;10.68;;;14.40;74.10;;;;;;5098323;28;20430;-57
2021/10/29 00:12:25;;;;;;;14.88;11.68;;;14.40;73.90;;;;;;5073141;28;20025;-55
2021/10/29 00:14:51;;;;;;;16.40;11.95;;;14.40;73.90;;;;;;5072820;28;20034;-54
2021/10/29 00:17:18;;;;;;;15.50;12.05;;;14.40;74.10;;;;;;5073275;28;20545;-53
2021/10/29 00:19:44;;;;;;;14.90;12.00;;;14.40;74.70;;;;;;5072732;28;20028;-53
2021/10/29 00:22:10;;;;;;;15.98;12.20;;;14.40;74.00;;;;;;5072707;28;20025;-54
2021/10/29 00:24:36;;;;;;;14.05;11.35;;;14.40;74.20;;;;;;5072688;28;20416;-54
2021/10/29 00:27:02;;;;;;;16.48;11.82;;;14.40;74.20;;;;;;5113847;28;20024;-51
2021/10/29 00:29:28;;;;;;;16.58;11.52;;;14.40;74.20;;;;;;5098259;28;20028;-54
2021/10/29 00:31:53;;;;;;;14.88;11.80;;;14.40;74.30;;;;;;5097113;28;20117;-55
2021/10/29 00:34:19;;;;;;;15.23;11.57;;;14.40;74.20;;;;;;5096745;28;20035;-55
2021/10/29 00:36:45;;;;;;;17.33;11.88;;;14.40;74.20;;;;;;5094907;28;20153;-54
2021/10/29 00:39:11;;;;;;;14.68;11.13;;;14.40;74.40;;;;;;5109336;28;20402;-55
2021/10/29 00:41:37;;;;;;;15.73;12.07;;;14.40;74.40;;;;;;5110928;28;20475;-53
2021/10/29 00:44:04;;;;;;;15.38;11.23;;;14.40;74.40;;;;;;5098318;28;20020;-54
2021/10/29 00:46:30;;;;;;;17.33;13.32;;;14.40;74.30;;;;;;5088107;28;20392;-52
2021/10/29 00:48:56;;;;;;;14.85;11.98;;;14.40;74.40;;;;;;5096377;28;20028;-51
2021/10/29 00:51:22;;;;;;;16.48;12.55;;;14.40;74.40;;;;;;5096365;28;20035;-55
2021/10/29 00:53:49;;;;;;;14.70;12.00;;;14.40;74.50;;;;;;5096308;28;20074;-53
2021/10/29 00:56:16;;;;;;;16.23;12.13;;;14.40;74.60;;;;;;5096370;28;20095;-52
2021/10/29 00:58:41;;;;;;;17.20;12.18;;;14.40;74.60;;;;;;5082049;28;20383;-55
2021/10/29 01:01:08;;;;;;;15.10;11.55;;;14.40;74.60;;;;;;5110809;28;20030;-51
2021/10/29 01:03:37;;;;;;;16.98;13.30;;;14.40;74.50;;;;;;5095909;28;20035;-52
2021/10/29 01:06:03;;;;;;;15.73;11.65;;;14.40;74.50;;;;;;5094504;28;20401;-51
2021/10/29 01:08:29;;;;;;;15.18;11.65;;;14.40;74.50;;;;;;5095934;28;20071;-53
2021/10/29 01:10:55;;;;;;;13.02;10.68;;;14.40;74.50;;;;;;5096410;28;20067;-55
2021/10/29 01:13:21;;;;;;;15.68;11.75;;;14.40;74.50;;;;;;5096043;28;20028;-55
2021/10/29 01:15:47;;;;;;;18.35;11.48;;;14.40;74.60;;;;;;5096484;28;20071;-54
2021/10/29 01:18:13;;;;;;;18.88;11.68;;;14.40;74.70;;;;;;5103680;28;20027;-51
2021/10/29 01:20:38;;;;;;;15.27;12.27;;;14.40;74.60;;;;;;5112761;28;20352;-55
2021/10/29 01:23:04;;;;;;;17.40;11.48;;;14.40;74.60;;;;;;5105649;28;20039;-55
2021/10/29 01:25:30;;;;;;;15.63;12.38;;;14.40;74.70;;;;;;5100755;28;20016;-52
2021/10/29 01:27:55;;;;;;;14.75;11.90;;;14.40;74.60;;;;;;5087131;28;20024;-55
2021/10/29 01:30:21;;;;;;;15.50;12.32;;;14.40;74.80;;;;;;5101607;28;20495;-55
2021/10/29 01:32:47;;;;;;;16.20;12.55;;;14.40;74.70;;;;;;5115130;28;20489;-51
2021/10/29 01:35:15;;;;;;;15.93;11.98;;;14.40;74.60;;;;;;5103090;28;20123;-52
2021/10/29 01:37:42;;;;;;;15.35;11.55;;;14.40;74.60;;;;;;5094696;28;20024;-51
2021/10/29 01:40:14;;;;;;;18.25;12.20;;;14.40;74.80;;;;;;5095597;28;20020;-55
2021/10/29 01:42:41;;;;;;;15.18;11.45;;;14.30;74.70;;;;;;5095783;28;20544;-52
2021/10/29 01:45:07;;;;;;;15.15;12.02;;;14.30;74.60;;;;;;5095780;28;20035;-53
2021/10/29 01:47:34;;;;;;;15.88;11.30;;;14.30;74.60;;;;;;5095603;28;20498;-55
2021/10/29 01:50:00;;;;;;;13.43;10.93;;;14.30;74.70;;;;;;5105219;28;20028;-55
2021/10/29 01:52:28;;;;;;;14.68;11.00;;;14.20;74.90;;;;;;5087966;28;20376;-54
2021/10/29 01:54:54;;;;;;;14.43;10.88;;;14.20;75.00;;;;;;5077990;28;20435;-53
2021/10/29 01:57:20;;;;;;;14.75;10.00;;;14.10;74.90;;;;;;5106786;28;20016;-53
2021/10/29 01:59:46;;;;;;;16.27;11.13;;;14.10;75.00;;;;;;5096776;28;20074;-52
2021/10/29 02:02:12;;;;;;;15.52;10.88;;;14.00;74.80;;;;;;5115832;28;20402;-55
2021/10/29 02:04:38;;;;;;;14.02;10.35;;;14.00;74.90;;;;;;5115417;28;20020;-53
2021/10/29 02:07:04;;;;;;;12.82;10.23;;;14.00;75.10;;;;;;5113973;28;20019;-54
2021/10/29 02:09:30;;;;;;;14.68;10.70;;;13.90;75.10;;;;;;5097708;28;20029;-51
2021/10/29 02:11:55;;;;;;;14.73;11.00;;;13.90;75.30;;;;;;5078038;28;20032;-51
2021/10/29 02:14:21;;;;;;;15.23;11.00;;;13.90;75.60;;;;;;5115403;28;20421;-51
2021/10/29 02:16:47;;;;;;;14.70;9.75;;;13.90;75.70;;;;;;5115260;28;20023;-52
2021/10/29 02:19:13;;;;;;;13.50;10.30;;;13.90;75.70;;;;;;5115168;28;20031;-52
2021/10/29 02:21:39;;;;;;;15.55;10.73;;;13.90;76.00;;;;;;5114961;28;20110;-52
2021/10/29 02:24:06;;;;;;;15.15;10.63;;;13.90;76.00;;;;;;5114000;28;20023;-52
2021/10/29 02:26:33;;;;;;;14.18;11.45;;;13.90;76.10;;;;;;5107148;28;20423;-55
2021/10/29 02:28:59;;;;;;;13.68;10.98;;;13.90;76.30;;;;;;5077849;28;20040;-55
2021/10/29 02:31:26;;;;;;;14.63;11.20;;;13.90;76.30;;;;;;5114896;28;20037;-51
2021/10/29 02:33:53;;;;;;;15.05;11.35;;;13.90;76.30;;;;;;5114891;28;20057;-53
2021/10/29 02:36:19;;;;;;;15.50;11.38;;;13.90;76.30;;;;;;5114416;28;20071;-55
2021/10/29 02:38:45;;;;;;;15.00;11.23;;;14.00;76.40;;;;;;5114991;28;20024;-51
2021/10/29 02:41:11;;;;;;;14.88;11.93;;;14.00;76.40;;;;;;5110263;28;20379;-56
2021/10/29 02:43:36;;;;;;;15.02;10.75;;;14.00;76.50;;;;;;5107587;28;20031;-54
2021/10/29 02:46:02;;;;;;;12.38;10.98;;;14.00;76.50;;;;;;5098468;28;20024;-53
2021/10/29 02:48:28;;;;;;;14.43;10.55;;;14.00;76.40;;;;;;5088619;28;20130;-52
2021/10/29 02:50:54;;;;;;;14.38;11.63;;;14.00;76.40;;;;;;5077148;28;20107;-52
2021/10/29 02:53:19;;;;;;;16.73;12.30;;;14.00;76.40;;;;;;5073830;28;20024;-53
2021/10/29 02:55:45;;;;;;;15.02;10.93;;;14.10;76.40;;;;;;5079528;28;20034;-55
2021/10/29 02:58:11;;;;;;;13.15;10.70;;;14.00;76.40;;;;;;5093360;28;20117;-55
2021/10/29 03:00:36;;;;;;;15.90;12.15;;;14.10;76.40;;;;;;5095328;28;20085;-55
2021/10/29 03:03:02;;;;;;;16.33;11.75;;;14.00;76.30;;;;;;5092924;28;20015;-54
2021/10/29 03:05:28;;;;;;;15.48;12.15;;;14.00;76.20;;;;;;5105530;28;20055;-54
2021/10/29 03:07:53;;;;;;;14.88;11.10;;;14.00;76.20;;;;;;5095458;28;20027;-55
2021/10/29 03:10:19;;;;;;;16.77;12.88;;;14.00;76.10;;;;;;5093806;28;20059;-54
2021/10/29 03:12:45;;;;;;;17.25;12.80;;;14.00;76.10;;;;;;5093259;28;20028;-52
2021/10/29 03:15:12;;;;;;;15.43;12.32;;;14.00;76.20;;;;;;5093779;28;20468;-54
2021/10/29 03:17:38;;;;;;;16.50;11.93;;;14.00;76.30;;;;;;5092835;28;20059;-57
2021/10/29 03:20:06;;;;;;;16.10;12.55;;;14.00;76.40;;;;;;5093729;28;20456;-54
2021/10/29 03:22:31;;;;;;;15.77;12.05;;;13.90;76.30;;;;;;5093854;28;20513;-54
2021/10/29 03:24:57;;;;;;;15.85;12.60;;;14.00;76.40;;;;;;5093657;28;20028;-54
2021/10/29 03:27:23;;;;;;;14.70;12.30;;;13.90;76.30;;;;;;5083174;28;20028;-56
2021/10/29 03:29:49;;;;;;;14.95;11.73;;;13.90;76.30;;;;;;5092541;28;20031;-57
2021/10/29 03:32:17;;;;;;;14.65;11.88;;;13.90;76.30;;;;;;5095246;28;20017;-57
2021/10/29 03:34:43;;;;;;;17.88;12.80;;;13.90;76.20;;;;;;5074980;28;20032;-55
2021/10/29 03:42:38;;;;;;;14.73;11.07;;;13.80;76.30;;;;;;5091655;28;20013;-55
2021/10/29 03:45:08;;;;;;;18.30;12.50;;;13.90;76.40;;;;;;5093385;28;20052;-52
2021/10/29 03:47:41;;;;;;;12.55;10.43;;;13.80;76.30;;;;;;5097200;28;20059;-57
2021/10/29 03:50:21;;;;;;;15.18;11.32;;;13.80;76.40;;;;;;5092393;28;20035;-55
2021/10/29 03:53:02;;;;;;;15.03;11.40;;;13.90;76.60;;;;;;5093789;28;20476;-52
2021/10/29 03:55:38;;;;;;;13.35;10.90;;;13.80;76.50;;;;;;5093181;28;20613;-55
2021/10/29 03:58:04;;;;;;;15.70;10.85;;;13.80;76.60;;;;;;5092633;28;20365;-54
2021/10/29 04:00:30;;;;;;;14.88;12.18;;;13.80;76.60;;;;;;5086999;28;20490;-54
2021/10/29 04:03:01;;;;;;;15.13;12.07;;;13.70;76.60;;;;;;5093097;28;20016;-53
2021/10/29 04:05:29;;;;;;;14.10;10.95;;;13.70;76.80;;;;;;5100951;28;20379;-55
2021/10/29 04:07:55;;;;;;;14.02;10.85;;;13.70;76.80;;;;;;5093026;28;20032;-55
2021/10/29 04:10:25;;;;;;;14.10;11.40;;;13.60;76.90;;;;;;5093032;28;20028;-52
2021/10/29 04:12:53;;;;;;;14.95;12.38;;;13.60;76.90;;;;;;5093028;28;20713;-52
2021/10/29 04:15:19;;;;;;;14.95;11.35;;;13.60;77.10;;;;;;5092910;28;20071;-51
2021/10/29 04:17:44;;;;;;;14.93;11.27;;;13.60;77.10;;;;;;5093287;28;20036;-53
2021/10/29 04:20:10;;;;;;;16.25;12.93;;;13.50;77.10;;;;;;5095724;28;20115;-54
2021/10/29 04:22:36;;;;;;;15.73;12.35;;;13.50;77.20;;;;;;5095588;28;20016;-52
2021/10/29 04:25:02;;;;;;;17.02;12.43;;;13.50;77.30;;;;;;5072787;28;20086;-53
2021/10/29 04:27:31;;;;;;;18.95;12.80;;;13.50;77.40;;;;;;5073055;28;20039;-55
2021/10/29 04:29:59;;;;;;;15.95;12.20;;;13.40;77.50;;;;;;5087372;28;20039;-55
2021/10/29 04:32:24;;;;;;;18.02;13.10;;;13.40;77.60;;;;;;5092757;28;20392;-54
2021/10/29 04:34:51;;;;;;;15.05;12.50;;;13.40;77.70;;;;;;5092472;28;20024;-53
2021/10/29 04:37:17;;;;;;;14.57;12.38;;;13.40;77.80;;;;;;5092658;28;20107;-55
2021/10/29 04:39:45;;;;;;;16.48;13.02;;;13.40;77.80;;;;;;5104368;28;20026;-54
2021/10/29 04:42:11;;;;;;;16.35;12.82;;;13.40;77.90;;;;;;5106308;28;20019;-54
2021/10/29 04:44:36;;;;;;;17.23;13.38;;;13.40;77.90;;;;;;5097400;28;20558;-54
2021/10/29 04:47:02;;;;;;;16.02;13.02;;;13.50;78.00;;;;;;5086249;28;20027;-52
2021/10/29 04:49:28;;;;;;;17.10;12.82;;;13.40;78.00;;;;;;5071814;28;20108;-53
2021/10/29 04:51:53;;;;;;;19.25;13.35;;;13.50;78.20;;;;;;5083447;28;20020;-54
2021/10/29 04:54:19;;;;;;;16.88;12.98;;;13.50;78.20;;;;;;5085315;28;20126;-51
2021/10/29 04:56:47;;;;;;;16.58;12.80;;;13.50;78.20;;;;;;5085196;28;20024;-54
2021/10/29 04:59:15;;;;;;;16.00;13.35;;;13.50;78.20;;;;;;5087346;28;20491;-55
2021/10/29 05:01:43;;;;;;;17.50;12.55;;;13.60;78.40;;;;;;5091870;28;20115;-55
2021/10/29 05:04:09;;;;;;;16.58;12.52;;;13.60;78.30;;;;;;5100117;28;20020;-55
2021/10/29 05:06:35;;;;;;;18.55;12.75;;;13.60;78.30;;;;;;5098510;28;20024;-55
2021/10/29 05:09:01;;;;;;;16.88;12.38;;;13.60;78.40;;;;;;5091562;28;20020;-52
2021/10/29 05:11:26;;;;;;;18.45;12.82;;;13.60;78.40;;;;;;5092277;28;20052;-53
2021/10/29 05:13:52;;;;;;;18.10;13.02;;;13.60;78.40;;;;;;5088280;28;20051;-54
2021/10/29 05:16:18;;;;;;;16.58;12.75;;;13.60;78.40;;;;;;5096539;28;20032;-53
2021/10/29 05:18:44;;;;;;;16.90;11.90;;;13.60;79.20;;;;;;5097928;28;20035;-56
2021/10/29 05:21:09;;;;;;;15.88;11.80;;;13.60;78.50;;;;;;5096236;28;20026;-52
2021/10/29 05:23:35;;;;;;;17.23;12.35;;;13.60;78.50;;;;;;5094936;28;20524;-52
2021/10/29 05:26:01;;;;;;;17.40;12.13;;;13.60;78.40;;;;;;5095599;28;20095;-52
2021/10/29 05:28:27;;;;;;;19.35;13.38;;;13.60;78.40;;;;;;5090721;28;20039;-54
2021/10/29 05:30:52;;;;;;;18.80;12.30;;;13.60;78.60;;;;;;5094376;28;20067;-53
2021/10/29 05:33:18;;;;;;;17.45;12.93;;;13.60;78.60;;;;;;5094869;28;20231;-52
2021/10/29 05:35:43;;;;;;;22.52;13.43;;;13.60;78.70;;;;;;5093159;28;20086;-55
2021/10/29 05:38:09;;;;;;;18.00;11.82;;;13.60;78.80;;;;;;5097088;28;20081;-55
2021/10/29 05:40:35;;;;;;;19.52;11.82;;;13.60;78.80;;;;;;5097722;28;20024;-57
2021/10/29 05:43:00;;;;;;;18.25;12.43;;;13.60;78.90;;;;;;5095087;28;20030;-54
2021/10/29 05:45:26;;;;;;;18.30;12.00;;;13.60;79.00;;;;;;5086526;28;20183;-56
2021/10/29 05:47:52;;;;;;;17.58;11.68;;;13.60;79.00;;;;;;5089369;28;20484;-54
2021/10/29 05:50:18;;;;;;;17.52;11.63;;;13.60;79.10;;;;;;5095423;28;20383;-52
2021/10/29 05:52:45;;;;;;;21.63;11.80;;;13.60;79.20;;;;;;5069808;28;20085;-56
2021/10/29 05:57:38;;;;;;;17.95;12.02;;;13.60;79.40;;;;;;5087430;28;20118;-52
2021/10/29 06:00:05;;;;;;;18.27;12.13;;;13.60;79.50;;;;;;5064015;28;20547;-53
2021/10/29 06:02:30;;;;;;;19.13;10.77;;;13.60;79.60;;;;;;5079746;28;20027;-55
2021/10/29 06:04:56;;;;;;;15.65;10.48;;;13.60;79.60;;;;;;5081418;28;20024;-57
2021/10/29 06:07:22;;;;;;;17.58;11.48;;;13.60;79.70;;;;;;5083773;28;20021;-57
2021/10/29 06:09:48;;;;;;;18.90;11.15;;;13.60;79.70;;;;;;5092126;28;20034;-52
2021/10/29 06:12:13;;;;;;;25.05;12.57;;;13.60;79.70;;;;;;5090128;28;20059;-55
2021/10/29 06:14:40;;;;;;;30.80;12.23;;;13.60;79.70;;;;;;5071782;28;20344;-53
2021/10/29 06:17:07;;;;;;;18.77;11.70;;;13.60;79.70;;;;;;5079962;28;20032;-55
2021/10/29 06:19:33;;;;;;;16.35;11.30;;;13.60;79.90;;;;;;5082552;28;20503;-55
2021/10/29 06:24:26;;;;;;;25.02;10.57;;;13.60;80.00;;;;;;5083561;28;20910;-56
2021/10/29 06:29:23;;;;;;;;;;;13.60;80.00;;;;;;5085741;28;20024;-54
2021/10/29 06:31:49;;;;;;;21.38;9.48;;;13.60;79.60;;;;;;5083924;28;19938;-54
2021/10/29 06:34:15;;;;;;;18.02;9.50;;;13.60;79.80;;;;;;5079117;28;20992;-53
2021/10/29 06:36:41;;;;;;;16.75;8.82;;;13.60;79.90;;;;;;5084999;28;20108;-54
2021/10/29 06:39:09;;;;;;;16.92;9.73;;;13.60;80.00;;;;;;5082134;28;20032;-55
2021/10/29 06:41:36;;;;;;;16.50;9.30;;;13.60;80.00;;;;;;5085046;28;20032;-57
2021/10/29 06:49:09;;;;;;;14.88;9.63;;;13.60;80.00;;;;;;5075804;28;20042;-55
2021/10/29 06:59:59;;;;;;;13.25;9.00;;;13.70;79.80;;;;;;5081529;28;20038;-54
2021/10/29 07:05:09;;;;;;;11.35;8.85;;;13.70;79.60;;;;;;5055971;28;20082;-55
2021/10/29 07:40:33;;;;;;;17.23;8.50;;;13.90;79.50;;;;;;5066229;28;20034;-57
2021/10/29 07:43:02;;;;;;;13.30;8.70;;;13.90;79.40;;;;;;5063910;28;20020;-55
2021/10/29 07:45:28;;;;;;;12.38;7.28;;;13.90;79.20;;;;;;5062355;28;20036;-57
2021/10/29 07:47:58;;;;;;;10.20;7.20;;;13.90;79.10;;;;;;5060869;28;20036;-55
2021/10/29 07:50:25;;;;;;;14.05;6.93;;;13.90;78.90;;;;;;5062318;28;20077;-55
2021/10/29 07:52:53;;;;;;;11.00;6.78;;;13.90;78.80;;;;;;5064737;28;20032;-55
2021/10/29 07:55:21;;;;;;;14.40;7.40;;;13.90;78.90;;;;;;5047528;28;20046;-54
2021/10/29 07:57:48;;;;;;;9.70;7.32;;;13.90;78.90;;;;;;5046767;28;20512;-55
2021/10/29 08:00:17;;;;;;;9.57;7.50;;;13.80;78.80;;;;;;5066067;28;20027;-54
2021/10/29 08:02:44;;;;;;;10.95;7.07;;;13.90;79.00;;;;;;5059359;28;20024;-56
2021/10/29 08:05:10;;;;;;;9.68;5.97;;;13.90;79.10;;;;;;5037531;28;20039;-56
2021/10/29 08:07:36;;;;;;;7.82;6.22;;;13.90;79.00;;;;;;5063413;28;20082;-55
2021/10/29 08:10:04;;;;;;;10.48;7.22;;;13.90;78.80;;;;;;5066596;28;20032;-56
2021/10/29 08:12:32;;;;;;;9.20;6.65;;;13.90;78.80;;;;;;5067494;28;20059;-56
2021/10/29 08:14:58;;;;;;;8.63;6.47;;;13.90;78.70;;;;;;5058604;28;20024;-57
2021/10/29 08:17:23;;;;;;;9.35;6.70;;;13.90;78.80;;;;;;5047237;28;20050;-57
2021/10/29 08:19:49;;;;;;;9.57;6.88;;;13.90;78.70;;;;;;5073910;28;20035;-55
2021/10/29 08:22:15;;;;;;;11.43;7.40;;;13.90;78.70;;;;;;5065386;28;20588;-56
2021/10/29 08:24:42;;;;;;;10.82;7.22;;;14.00;78.60;;;;;;5067098;28;20052;-56
2021/10/29 08:27:08;;;;;;;11.35;7.53;;;14.00;78.50;;;;;;5067874;28;20411;-55
2021/10/29 08:29:39;;;;;;;10.73;7.45;;;14.00;78.40;;;;;;5042499;28;22824;-56
2021/10/29 08:32:06;;;;;;;8.63;6.85;;;14.10;78.40;;;;;;5058442;28;20104;-56
2021/10/29 08:34:32;;;;;;;11.05;7.88;;;14.10;78.30;;;;;;5062287;28;20098;-56
2021/10/29 08:37:01;;;;;;;12.43;8.57;;;14.10;78.20;;;;;;5061888;28;20783;-56
2021/10/29 08:39:30;;;;;;;13.23;7.47;;;14.10;78.20;;;;;;5058768;28;20457;-56
2021/10/29 08:42:00;;;;;;;11.73;7.55;;;14.20;78.10;;;;;;5066176;28;20037;-56
2021/10/29 08:44:31;;;;;;;10.70;7.75;;;14.20;77.90;;;;;;5069437;28;20023;-55
2021/10/29 08:47:01;;;;;;;11.77;8.90;;;14.20;78.00;;;;;;5068188;28;20032;-54
2021/10/29 08:49:29;;;;;;;11.23;8.73;;;14.20;77.90;;;;;;5070676;28;20040;-56
2021/10/29 08:51:55;;;;;;;11.38;7.90;;;14.30;77.90;;;;;;5068270;28;20487;-55
2021/10/29 08:54:23;;;;;;;10.73;8.40;;;14.30;78.00;;;;;;5064403;28;20029;-56
2021/10/29 08:56:50;;;;;;;9.93;7.72;;;14.30;77.70;;;;;;5067689;28;20051;-56
2021/10/29 08:59:30;;;;;;;13.82;7.07;;;14.30;77.60;;;;;;5062619;28;20681;-56
2021/10/29 09:02:14;;;;;;;11.18;7.07;;;14.40;77.70;;;;;;5066786;28;20055;-56
2021/10/29 09:10:05;;;;;;;10.88;7.80;;;14.40;77.50;;;;;;5063667;28;20786;-55
2021/10/29 09:32:44;;;;;;;15.32;7.18;;;14.30;76.60;;;;;;5065437;28;20518;-55
2021/10/29 09:35:12;;;;;;;9.88;6.28;;;14.20;76.50;;;;;;5052438;28;20459;-55
2021/10/29 09:38:03;;;;;;;8.68;6.72;;;14.10;76.60;;;;;;5067949;28;20040;-55
2021/10/29 09:40:59;;;;;;;10.55;5.70;;;14.10;76.90;;;;;;5046522;28;20434;-55
2021/10/29 09:43:25;;;;;;;10.10;6.35;;;14.10;76.90;;;;;;5065771;28;20054;-55
2021/10/29 09:46:07;;;;;;;8.05;6.30;;;14.10;77.10;;;;;;5064433;28;20483;-55
2021/10/29 09:51:05;;;;;;;13.85;6.10;;;14.20;77.30;;;;;;5065977;28;20640;-56
2021/10/29 09:53:39;;;;;;;7.95;6.18;;;14.20;77.20;;;;;;5068163;28;20495;-56
2021/10/29 09:56:11;;;;;;;8.43;6.20;;;14.20;77.20;;;;;;5059078;28;20474;-56
2021/10/29 09:58:38;;;;;;;8.52;5.85;;;14.30;77.20;;;;;;5073744;28;20671;-56
2021/10/29 10:01:04;;;;;;;9.20;6.05;;;14.30;77.10;;;;;;5065260;28;20026;-56
2021/10/29 10:03:32;;;;;;;14.45;6.15;;;14.30;77.10;;;;;;5060250;28;20872;-56
2021/10/29 10:06:00;;;;;;;8.45;6.35;;;14.30;77.00;;;;;;5053274;28;20115;-55
2021/10/29 10:08:27;;;;;;;9.57;6.30;;;14.30;77.20;;;;;;5070210;28;20036;-55
2021/10/29 10:10:54;;;;;;;10.00;6.55;;;14.40;77.20;;;;;;5082958;28;20032;-54
2021/10/29 10:13:21;;;;;;;8.60;6.38;;;14.40;77.20;;;;;;5078774;28;20031;-54
2021/10/29 10:15:50;;;;;;;13.75;6.78;;;14.40;77.00;;;;;;5078936;28;20036;-56
2021/10/29 10:18:18;;;;;;;11.68;6.15;;;14.40;77.00;;;;;;5078266;28;20050;-56
2021/10/29 10:20:44;;;;;;;8.75;6.03;;;14.50;76.90;;;;;;5072683;28;20024;-56
2021/10/29 10:23:16;;;;;;;8.85;6.72;;;14.50;76.90;;;;;;5079503;28;20023;-56
2021/10/29 10:47:07;;;;;;;9.75;6.72;;;14.60;76.10;;;;;;5070472;28;20070;-54
2021/10/29 10:49:45;;;;;;;10.00;6.78;;;14.60;76.10;;;;;;5083428;28;20039;-52
2021/10/29 11:11:14;;;;;;;10.13;6.95;;;14.70;76.10;;;;;;5064201;28;20859;-54
2021/10/29 11:13:43;;;;;;;9.07;6.80;;;14.70;76.00;;;;;;5067405;28;20036;-54
2021/10/29 11:16:16;;;;;;;14.40;8.13;;;14.60;76.00;;;;;;5065717;28;20130;-56
2021/10/29 11:19:05;;;;;;;10.77;7.57;;;14.60;75.90;;;;;;5067598;28;20028;-55
2021/10/29 11:21:38;;;;;;;10.18;7.63;;;14.60;76.10;;;;;;5067828;28;20036;-55
2021/10/29 11:24:10;;;;;;;9.82;6.82;;;14.60;76.10;;;;;;5066544;28;20043;-56
2021/10/29 11:26:44;;;;;;;10.57;6.95;;;14.60;76.00;;;;;;5068265;28;20384;-56
2021/10/29 11:29:12;;;;;;;15.00;7.15;;;14.60;76.00;;;;;;5065541;28;20032;-56
2021/10/29 11:31:47;;;;;;;9.52;6.10;;;14.60;76.00;;;;;;5070230;28;20032;-56
2021/10/29 11:34:16;;;;;;;9.60;6.78;;;14.60;76.00;;;;;;5067439;28;20032;-56
2021/10/29 11:36:50;;;;;;;9.40;6.55;;;14.60;76.00;;;;;;5065713;28;20083;-56
2021/10/29 11:39:21;;;;;;;18.02;6.97;;;14.60;76.10;;;;;;5047650;28;20048;-55
2021/10/29 11:41:48;;;;;;;10.82;6.78;;;14.60;76.00;;;;;;5063414;28;20050;-56
2021/10/29 11:44:23;;;;;;;10.00;6.47;;;14.60;76.10;;;;;;5066973;28;20025;-54
2021/10/29 11:46:52;;;;;;;10.63;6.35;;;14.60;76.00;;;;;;5068629;28;20039;-55
2021/10/29 11:49:24;;;;;;;11.65;6.93;;;14.60;75.90;;;;;;5064361;28;20028;-57
2021/10/29 11:51:51;;;;;;;9.25;5.95;;;14.60;75.80;;;;;;5065428;28;20024;-53
2021/10/29 11:54:23;;;;;;;11.35;6.30;;;14.50;75.70;;;;;;5066530;28;20029;-55
2021/10/29 11:59:51;;;;;;;8.57;6.13;;;14.50;75.90;;;;;;5053584;28;20951;-55
2021/10/29 12:07:41;;;;;;;10.55;6.75;;;14.40;75.90;;;;;;5057980;28;20031;-54
2021/10/29 12:10:17;;;;;;;9.77;5.28;;;14.40;75.90;;;;;;5060664;28;20082;-54
2021/10/29 12:12:46;;;;;;;15.82;6.68;;;14.40;75.90;;;;;;5055582;28;20507;-55
2021/10/29 12:15:21;;;;;;;10.23;6.32;;;14.40;75.90;;;;;;5057139;28;20028;-54
2021/10/29 12:17:53;;;;;;;7.80;5.75;;;14.40;76.00;;;;;;5062395;28;20036;-55
2021/10/29 12:20:23;;;;;;;13.77;5.97;;;14.40;76.00;;;;;;5059417;28;20174;-55
2021/10/29 12:22:54;;;;;;;11.93;5.88;;;14.30;75.90;;;;;;5078118;28;20344;-54
2021/10/29 12:25:39;;;;;;;12.10;5.50;;;14.30;75.80;;;;;;5069329;28;20040;-56
2021/10/29 12:28:12;;;;;;;22.45;5.68;;;14.30;75.80;;;;;;5068178;28;20423;-53
2021/10/29 13:03:53;;;;;;;7.95;4.28;;;13.10;76.30;;;;;;5069158;28;20101;-56
2021/10/29 13:06:19;;;;;;;15.90;4.93;;;13.00;76.80;;;;;;5065354;28;20036;-53
2021/10/29 13:08:49;;;;;;;28.77;5.20;;;13.00;77.30;;;;;;5068123;28;20086;-54
2021/10/29 13:11:17;;;;;;;20.80;5.17;;;12.90;77.10;;;;;;5067027;28;20039;-55
2021/10/29 13:13:52;;;;;;;30.23;5.07;;;12.90;77.40;;;;;;5068392;28;20028;-56
2021/10/29 13:16:19;;;;;;;28.90;4.70;;;12.80;77.60;;;;;;5072329;28;20031;-56
2021/10/29 13:35:09;;;;;;;59.58;7.00;;;12.00;79.40;;;;;;5064658;28;20073;-55
2021/10/29 13:53:37;;;;;;;25.83;8.20;;;11.80;82.30;;;;;;5065871;28;20036;-56
2021/10/29 14:28:45;;;;;;;17.67;7.90;;;12.00;84.10;;;;;;5065949;28;20050;-57
2021/10/29 14:34:17;;;;;;;20.02;7.22;;;12.00;84.20;;;;;;5022806;28;20044;-54
2021/10/29 14:39:17;;;;;;;24.98;7.35;;;12.10;84.40;;;;;;5062686;28;20602;-54
2021/10/29 14:42:31;;;;;;;24.83;6.78;;;12.10;84.30;;;;;;5066935;28;20036;-55
2021/10/29 14:44:37;;;;;;;14.93;7.43;;;12.10;84.10;;;;;;5055998;28;20131;-56
2021/10/29 15:29:07;;;;;;;;;;;11.50;86.50;;;;;;5067834;28;20082;-55
2021/10/29 15:43:14;;;;;;;48.42;7.60;;;11.30;86.60;;;;;;5087679;28;20019;-55
2021/10/29 15:48:09;;;;;;;32.47;6.15;;;11.20;87.00;;;;;;5078055;28;21422;-53
2021/10/29 15:50:36;;;;;;;24.30;6.78;;;11.20;87.30;;;;;;5067697;28;20028;-57
2021/10/29 15:53:08;;;;;;;27.35;7.03;;;11.20;87.60;;;;;;5076717;28;20043;-55
2021/10/29 15:55:44;;;;;;;38.40;7.07;;;11.10;87.30;;;;;;5073957;28;20399;-55
2021/10/29 15:58:26;;;;;;;34.58;6.35;;;11.10;87.70;;;;;;5067216;28;20067;-57
2021/10/29 16:01:13;;;;;;;30.70;6.93;;;11.00;87.80;;;;;;5067138;28;20031;-56
2021/10/29 16:17:12;;;;;;;21.10;5.50;;;10.70;88.30;;;;;;5071378;28;20051;-56
2021/10/29 16:19:40;;;;;;;27.45;6.07;;;10.60;88.70;;;;;;5078954;28;20059;-56
2021/10/29 16:22:08;;;;;;;18.35;5.70;;;10.60;89.10;;;;;;5069422;28;20077;-56
2021/10/29 16:24:38;;;;;;;17.92;4.95;;;10.50;89.20;;;;;;5071754;28;20028;-55
2021/10/29 16:27:04;;;;;;;16.38;4.70;;;10.50;89.40;;;;;;5073499;28;20808;-57
2021/10/29 16:29:30;;;;;;;25.10;4.45;;;10.50;89.50;;;;;;5074170;28;20064;-55
2021/10/29 16:31:56;;;;;;;15.80;4.90;;;10.40;89.70;;;;;;5049913;28;20099;-55
2021/10/29 16:34:24;;;;;;;17.23;4.82;;;10.40;89.60;;;;;;5071188;28;20046;-56
2021/10/29 16:36:50;;;;;;;18.85;5.00;;;10.40;89.90;;;;;;5078442;28;20197;-56
2021/10/29 16:39:15;;;;;;;25.00;5.32;;;10.40;90.00;;;;;;5072831;28;20139;-56
2021/10/29 16:41:42;;;;;;;16.73;4.22;;;10.40;90.00;;;;;;5076256;28;20117;-56
2021/10/29 16:44:08;;;;;;;18.75;5.05;;;10.40;90.50;;;;;;5075113;28;20331;-55
2021/10/29 16:46:34;;;;;;;11.52;4.47;;;10.40;90.20;;;;;;5071126;28;20028;-56
2021/10/29 16:49:00;;;;;;;14.48;5.03;;;10.40;90.10;;;;;;5061526;28;20024;-56
2021/10/29 16:51:26;;;;;;;20.65;5.20;;;10.40;90.30;;;;;;5071054;28;20065;-56
2021/10/29 16:53:52;;;;;;;18.30;4.72;;;10.40;90.20;;;;;;5066802;28;20408;-57
2021/10/29 16:56:18;;;;;;;15.18;4.80;;;10.40;90.40;;;;;;5064322;28;20036;-56
2021/10/29 16:58:43;;;;;;;8.55;4.07;;;10.50;90.40;;;;;;5069913;28;20039;-53
2021/10/29 17:01:09;;;;;;;14.98;4.50;;;10.50;90.40;;;;;;5069280;28;20748;-56
2021/10/29 17:03:35;;;;;;;16.60;4.80;;;10.40;90.40;;;;;;5065544;28;20030;-53
2021/10/29 17:06:01;;;;;;;22.88;4.53;;;10.50;90.40;;;;;;5065074;28;20093;-56
2021/10/29 17:08:26;;;;;;;14.73;4.53;;;10.50;90.30;;;;;;5070515;28;20039;-56
2021/10/29 17:10:53;;;;;;;8.80;3.92;;;10.40;90.30;;;;;;5072567;28;20057;-56
2021/10/29 17:13:18;;;;;;;15.25;4.50;;;10.50;90.30;;;;;;5074630;28;20032;-56
2021/10/29 17:15:44;;;;;;;21.00;4.43;;;10.40;90.40;;;;;;5063519;28;20364;-57
2021/10/29 17:18:11;;;;;;;23.73;4.70;;;10.50;90.50;;;;;;5073887;28;21755;-56
2021/10/29 17:20:37;;;;;;;11.52;4.28;;;10.50;90.40;;;;;;5073274;28;20062;-56
2021/10/29 17:23:04;;;;;;;16.00;5.20;;;10.50;90.50;;;;;;5074807;28;20035;-55
2021/10/29 17:25:31;;;;;;;17.48;4.20;;;10.50;90.50;;;;;;5077261;28;20020;-57
2021/10/29 17:27:57;;;;;;;20.52;4.68;;;10.50;90.50;;;;;;5079905;28;20028;-54
2021/10/29 17:30:23;;;;;;;22.70;4.72;;;10.50;90.70;;;;;;5058780;28;20507;-57
2021/10/29 17:32:49;;;;;;;12.48;4.70;;;10.60;90.40;;;;;;5079921;28;20046;-56
2021/10/29 17:35:17;;;;;;;18.90;5.13;;;10.60;90.50;;;;;;5075036;28;20041;-53
2021/10/29 17:37:43;;;;;;;15.02;4.82;;;10.60;90.60;;;;;;5070563;28;20035;-56
2021/10/29 17:40:11;;;;;;;18.63;4.80;;;10.60;90.70;;;;;;5072300;28;20039;-55
2021/10/29 17:42:37;;;;;;;27.02;5.10;;;10.70;90.70;;;;;;5071636;28;20028;-56
2021/10/29 17:45:09;;;;;;;18.75;5.43;;;10.80;90.50;;;;;;5070651;28;20104;-56
2021/10/29 17:47:37;;;;;;;27.67;6.57;;;10.80;90.50;;;;;;5072469;28;20052;-56